createdAt,value
2022-11-28T00:00:48.593Z,7.53
2022-11-28T00:05:52.843Z,7.28
2022-11-28T00:10:56.593Z,7.30
2022-11-28T00:16:04.380Z,7.37
2022-11-28T00:21:11.344Z,8.00
2022-11-28T00:26:17.064Z,6.68
2022-11-28T00:31:24.431Z,6.75
2022-11-28T00:36:28.515Z,6.07
2022-11-28T00:41:33.972Z,6.90
2022-11-28T00:46:39.425Z,5.97
2022-11-28T00:51:43.184Z,5.75
2022-11-28T00:56:46.861Z,6.25
2022-11-28T01:01:52.134Z,5.07
2022-11-28T01:06:57.183Z,4.65
2022-11-28T01:12:00.861Z,4.70
2022-11-28T01:17:05.942Z,4.57
2022-11-28T01:22:09.714Z,4.53
2022-11-28T01:27:13.390Z,4.43
2022-11-28T01:32:18.440Z,4.80
2022-11-28T01:37:22.136Z,4.40
2022-11-28T01:42:25.978Z,5.45
2022-11-28T01:47:32.319Z,4.75
2022-11-28T01:52:39.797Z,5.65
2022-11-28T01:57:43.695Z,5.63
2022-11-28T02:02:50.898Z,5.28
2022-11-28T02:07:55.078Z,5.10
2022-11-28T02:13:14.536Z,4.90
2022-11-28T02:18:35.930Z,5.25
2022-11-28T02:24:00.188Z,5.50
2022-11-28T02:29:37.819Z,5.62
2022-11-28T02:34:51.543Z,6.18
2022-11-28T02:40:06.886Z,5.68
2022-11-28T02:45:14.511Z,5.57
2022-11-28T02:50:25.802Z,5.73
2022-11-28T02:55:29.514Z,5.37
2022-11-28T03:00:36.514Z,5.03
2022-11-28T03:05:47.106Z,5.60
2022-11-28T03:10:56.511Z,5.37
2022-11-28T03:16:12.115Z,4.60
2022-11-28T03:21:23.330Z,5.62
2022-11-28T03:26:34.927Z,5.62
2022-11-28T03:31:42.195Z,4.90
2022-11-28T03:36:52.051Z,5.60
2022-11-28T03:42:01.055Z,5.50
2022-11-28T03:47:07.227Z,6.12
2022-11-28T03:52:17.367Z,5.80
2022-11-28T03:57:29.801Z,6.53
2022-11-28T04:02:39.973Z,6.12
2022-11-28T04:07:47.398Z,5.82
2022-11-28T04:12:58.274Z,5.80
2022-11-28T04:18:07.697Z,5.95
2022-11-28T04:23:16.255Z,6.22
2022-11-28T04:28:24.285Z,6.53
2022-11-28T04:33:33.048Z,5.50
2022-11-28T04:38:40.853Z,5.93
2022-11-28T04:43:49.982Z,5.65
2022-11-28T04:48:53.730Z,5.97
2022-11-28T04:54:02.963Z,6.22
2022-11-28T04:59:08.463Z,5.28
2022-11-28T05:04:13.415Z,6.28
2022-11-28T05:09:18.495Z,7.80
2022-11-28T05:14:22.217Z,5.87
2022-11-28T05:19:25.857Z,5.80
2022-11-28T05:24:32.502Z,6.90
2022-11-28T05:29:36.245Z,7.12
2022-11-28T05:34:40.147Z,8.80
2022-11-28T05:39:45.537Z,8.35
2022-11-28T05:44:49.642Z,10.25
2022-11-28T05:49:53.403Z,10.93
2022-11-28T05:54:58.838Z,13.57
2022-11-28T06:00:02.674Z,14.02
2022-11-28T06:05:35.111Z,15.60
2022-11-28T06:10:40.588Z,18.00
2022-11-28T06:15:45.383Z,18.55
2022-11-28T06:20:49.112Z,20.05
2022-11-28T06:25:54.279Z,21.30
2022-11-28T06:30:57.974Z,20.52
2022-11-28T06:36:02.208Z,20.77
2022-11-28T06:41:09.620Z,22.13
2022-11-28T06:46:16.288Z,22.83
2022-11-28T06:51:21.301Z,24.77
2022-11-28T06:56:26.381Z,26.58
2022-11-28T07:01:31.475Z,25.85
2022-11-28T07:06:35.341Z,26.70
2022-11-28T07:11:43.182Z,26.25
2022-11-28T07:16:47.369Z,27.58
2022-11-28T07:21:51.317Z,28.10
2022-11-28T07:26:56.535Z,29.60
2022-11-28T07:32:00.370Z,27.45
2022-11-28T07:37:04.149Z,28.27
2022-11-28T07:42:09.309Z,28.75
2022-11-28T07:47:13.043Z,29.58
2022-11-28T07:52:16.866Z,28.08
2022-11-28T07:57:21.940Z,28.90
2022-11-28T08:02:27.427Z,29.23
2022-11-28T08:07:31.817Z,29.33
2022-11-28T08:12:36.898Z,29.35
2022-11-28T08:17:40.619Z,27.70
2022-11-28T08:22:44.260Z,29.10
2022-11-28T08:27:49.282Z,27.50
2022-11-28T08:32:52.955Z,28.70
2022-11-28T08:38:01.579Z,27.35
2022-11-28T08:43:08.166Z,27.02
2022-11-28T08:48:12.047Z,28.15
2022-11-28T08:53:18.515Z,27.70
2022-11-28T08:58:23.902Z,27.67
2022-11-28T09:03:27.633Z,27.70
2022-11-28T09:08:31.338Z,27.08
2022-11-28T09:13:37.061Z,27.95
2022-11-28T09:18:40.890Z,29.35
2022-11-28T09:23:45.879Z,27.75
2022-11-28T09:28:51.319Z,28.55
2022-11-28T09:33:55.155Z,26.75
2022-11-28T09:39:00.959Z,28.27
2022-11-28T09:44:15.366Z,28.87
2022-11-28T09:49:30.754Z,29.10
2022-11-28T09:54:45.262Z,30.33
2022-11-28T09:59:50.387Z,32.40
2022-11-28T10:05:04.959Z,31.15
2022-11-28T10:10:18.514Z,32.15
2022-11-28T10:15:41.282Z,33.67
2022-11-28T10:20:48.029Z,31.20
2022-11-28T10:25:56.636Z,33.17
2022-11-28T10:31:06.949Z,34.10
2022-11-28T10:36:16.188Z,34.67
2022-11-28T10:41:25.867Z,36.17
2022-11-28T10:46:44.368Z,35.70
2022-11-28T10:52:01.118Z,36.28
2022-11-28T10:57:12.166Z,38.85
2022-11-28T11:02:23.722Z,44.63
2022-11-28T11:07:30.758Z,50.10
2022-11-28T11:12:35.893Z,46.05
2022-11-28T11:17:40.966Z,48.15
2022-11-28T11:22:55.832Z,48.13
2022-11-28T11:28:01.811Z,49.47
2022-11-28T11:33:14.950Z,49.67
2022-11-28T11:38:32.359Z,49.42
2022-11-28T11:43:40.050Z,49.17
2022-11-28T11:48:46.595Z,49.28
2022-11-28T11:54:00.515Z,47.17
2022-11-28T11:59:10.807Z,49.25
2022-11-28T12:04:43.779Z,51.92
2022-11-28T12:09:47.579Z,51.03
2022-11-28T12:14:52.661Z,49.72
2022-11-28T12:20:10.862Z,45.58
2022-11-28T12:35:39.458Z,50.22
2022-11-28T12:40:53.675Z,49.45
2022-11-28T12:46:06.367Z,51.15
2022-11-28T12:51:21.856Z,50.65
2022-11-28T12:56:39.696Z,50.28
2022-11-28T13:01:55.991Z,50.35
2022-11-28T13:07:10.046Z,48.75
2022-11-28T13:12:24.002Z,48.08
2022-11-28T13:17:42.732Z,49.70
2022-11-28T13:22:59.450Z,50.78
2022-11-28T13:28:12.335Z,48.08
2022-11-28T13:33:31.335Z,50.42
2022-11-28T13:39:09.600Z,47.85
2022-11-28T13:44:18.880Z,45.37
2022-11-28T13:49:24.882Z,50.72
2022-11-28T13:54:42.913Z,46.78
2022-11-28T14:04:52.906Z,45.97
2022-11-28T14:10:16.579Z,46.25
2022-11-28T14:15:30.804Z,43.65
2022-11-28T14:20:46.733Z,48.60
2022-11-28T14:25:54.559Z,47.83
2022-11-28T14:31:06.086Z,43.92
2022-11-28T14:36:26.144Z,44.65
2022-11-28T14:41:31.503Z,40.95
2022-11-28T14:46:35.312Z,44.35
2022-11-28T14:52:38.586Z,45.63
2022-11-28T14:57:58.206Z,41.58
2022-11-28T15:03:27.048Z,41.03
2022-11-28T15:08:50.281Z,44.03
2022-11-28T15:14:16.047Z,44.35
2022-11-28T15:19:25.555Z,42.60
2022-11-28T15:24:33.235Z,42.45
2022-11-28T15:29:38.332Z,42.78
2022-11-28T15:34:42.439Z,41.90
2022-11-28T15:39:48.645Z,39.50
2022-11-28T15:44:57.919Z,40.88
2022-11-28T15:50:03.898Z,43.00
2022-11-28T15:55:16.683Z,40.45
2022-11-28T16:00:24.358Z,39.53
2022-11-28T16:10:38.154Z,37.92
2022-11-28T16:15:50.105Z,36.80
2022-11-28T16:20:55.220Z,37.63
2022-11-28T16:26:03.557Z,39.40
2022-11-28T16:36:21.950Z,35.47
2022-11-28T16:46:35.901Z,30.98
2022-11-28T16:51:41.807Z,32.20
2022-11-28T16:56:45.627Z,34.17
2022-11-28T17:01:54.785Z,34.70
2022-11-28T17:07:04.252Z,38.38
2022-11-28T17:12:12.603Z,31.48
2022-11-28T17:17:19.899Z,31.27
2022-11-28T17:22:25.962Z,29.35
2022-11-28T17:27:29.693Z,28.98
2022-11-28T17:32:34.726Z,29.17
2022-11-28T17:37:38.665Z,29.60
2022-11-28T17:42:42.363Z,30.33
2022-11-28T17:47:47.621Z,30.48
2022-11-28T17:52:51.500Z,29.00
2022-11-28T17:57:55.247Z,28.77
2022-11-28T18:03:01.513Z,27.17
2022-11-28T18:08:05.611Z,28.17
2022-11-28T18:13:12.206Z,28.15
2022-11-28T18:18:17.432Z,28.27
2022-11-28T18:23:21.487Z,29.08
2022-11-28T18:28:26.032Z,30.83
2022-11-28T18:33:31.165Z,28.25
2022-11-28T18:38:34.921Z,29.42
2022-11-28T18:43:39.636Z,29.12
2022-11-28T18:48:47.034Z,26.58
2022-11-28T18:53:52.103Z,26.40
2022-11-28T18:58:57.644Z,25.17
2022-11-28T19:04:04.446Z,30.35
2022-11-28T19:09:10.434Z,30.37
2022-11-28T19:14:16.368Z,29.50
2022-11-28T19:19:21.626Z,29.73
2022-11-28T19:24:26.070Z,28.62
2022-11-28T19:29:29.974Z,27.15
2022-11-28T19:34:36.542Z,26.10
2022-11-28T19:39:40.415Z,27.75
2022-11-28T19:44:44.270Z,25.95
2022-11-28T19:49:50.051Z,27.52
2022-11-28T19:54:54.315Z,28.20
2022-11-28T19:59:58.926Z,26.35
2022-11-28T20:05:04.098Z,26.50
2022-11-28T20:10:09.502Z,26.95
2022-11-28T20:15:18.157Z,27.13
2022-11-28T20:20:23.929Z,26.17
2022-11-28T20:25:27.883Z,27.37
2022-11-28T20:30:31.620Z,28.98
2022-11-28T20:35:36.826Z,27.27
2022-11-28T20:40:41.113Z,27.60
2022-11-28T20:45:44.985Z,29.48
2022-11-28T20:50:50.136Z,28.77
2022-11-28T20:56:00.432Z,27.83
2022-11-28T21:01:05.109Z,26.98
2022-11-28T21:06:10.334Z,29.45
2022-11-28T21:11:36.566Z,27.52
2022-11-28T21:16:39.703Z,27.62
2022-11-28T21:21:44.898Z,31.62
2022-11-28T21:26:53.450Z,33.00
2022-11-28T21:31:58.072Z,30.83
2022-11-28T21:37:03.270Z,31.10
2022-11-28T21:42:07.230Z,29.02
2022-11-28T21:47:10.926Z,30.15
2022-11-28T21:52:16.769Z,29.37
2022-11-28T21:57:20.932Z,29.33
2022-11-28T22:02:30.461Z,29.37
2022-11-28T22:07:37.780Z,32.22
2022-11-28T22:12:41.689Z,31.90
2022-11-28T22:17:45.744Z,32.05
2022-11-28T22:22:51.203Z,29.90
2022-11-28T22:27:54.909Z,29.98
2022-11-28T22:32:59.207Z,27.98
2022-11-28T22:38:04.588Z,30.55
2022-11-28T22:43:09.072Z,31.10
2022-11-28T22:48:12.832Z,29.55
2022-11-28T22:53:18.242Z,30.77
2022-11-28T22:58:22.097Z,30.12
2022-11-28T23:03:25.891Z,29.67
2022-11-28T23:08:31.874Z,28.45
2022-11-28T23:13:36.159Z,28.35
2022-11-28T23:18:41.392Z,28.67
2022-11-28T23:23:46.834Z,27.23
2022-11-28T23:28:51.311Z,30.60
2022-11-28T23:33:55.222Z,27.73
2022-11-28T23:39:02.622Z,26.92
2022-11-28T23:44:06.524Z,27.37
2022-11-28T23:49:10.938Z,27.45
2022-11-28T23:54:16.008Z,29.52
2022-11-28T23:59:19.938Z,29.80
